sensor_id;sensor_type;location;lat;lon;timestamp;temperature;humidity
21163;DHT22;10739;52.198;20.908;2024-01-30T00:00:54;-0.10;99.90
21163;DHT22;10739;52.198;20.908;2024-01-30T00:03:20;-0.10;99.90
21163;DHT22;10739;52.198;20.908;2024-01-30T00:05:47;-0.20;99.90
21163;DHT22;10739;52.198;20.908;2024-01-30T00:08:15;-0.20;99.90
21163;DHT22;10739;52.198;20.908;2024-01-30T00:10:43;-0.20;99.90
21163;DHT22;10739;52.198;20.908;2024-01-30T00:13:09;-0.20;99.90
21163;DHT22;10739;52.198;20.908;2024-01-30T00:15:35;-0.20;99.90
21163;DHT22;10739;52.198;20.908;2024-01-30T00:18:01;-0.20;99.90
21163;DHT22;10739;52.198;20.908;2024-01-30T00:20:28;-0.30;99.90
21163;DHT22;10739;52.198;20.908;2024-01-30T00:22:54;-0.20;99.90
21163;DHT22;10739;52.198;20.908;2024-01-30T00:25:20;-0.30;99.90
21163;DHT22;10739;52.198;20.908;2024-01-30T00:27:46;-0.30;99.90
21163;DHT22;10739;52.198;20.908;2024-01-30T00:30:13;-0.30;99.90
21163;DHT22;10739;52.198;20.908;2024-01-30T00:32:40;-0.30;99.90
21163;DHT22;10739;52.198;20.908;2024-01-30T00:35:07;-0.30;99.90
21163;DHT22;10739;52.198;20.908;2024-01-30T00:37:35;-0.30;99.90
21163;DHT22;10739;52.198;20.908;2024-01-30T00:40:02;-0.30;99.90
21163;DHT22;10739;52.198;20.908;2024-01-30T00:42:28;-0.30;99.90
21163;DHT22;10739;52.198;20.908;2024-01-30T00:45:01;-0.30;99.90
21163;DHT22;10739;52.198;20.908;2024-01-30T00:47:35;-0.30;99.90
21163;DHT22;10739;52.198;20.908;2024-01-30T00:50:01;-0.30;99.90
21163;DHT22;10739;52.198;20.908;2024-01-30T00:52:28;-0.30;99.90
21163;DHT22;10739;52.198;20.908;2024-01-30T00:54:54;-0.30;99.90
21163;DHT22;10739;52.198;20.908;2024-01-30T00:57:20;-0.40;99.90
21163;DHT22;10739;52.198;20.908;2024-01-30T00:59:47;-0.40;99.90
21163;DHT22;10739;52.198;20.908;2024-01-30T01:02:13;-0.40;99.90
21163;DHT22;10739;52.198;20.908;2024-01-30T01:04:41;-0.40;99.90
21163;DHT22;10739;52.198;20.908;2024-01-30T01:07:07;-0.40;99.90
21163;DHT22;10739;52.198;20.908;2024-01-30T01:09:33;-0.40;99.90
21163;DHT22;10739;52.198;20.908;2024-01-30T01:11:59;-0.30;99.90
21163;DHT22;10739;52.198;20.908;2024-01-30T01:14:25;-0.30;99.90
21163;DHT22;10739;52.198;20.908;2024-01-30T01:16:52;-0.30;99.90
21163;DHT22;10739;52.198;20.908;2024-01-30T01:19:18;-0.30;99.90
21163;DHT22;10739;52.198;20.908;2024-01-30T01:21:44;-0.20;99.90
21163;DHT22;10739;52.198;20.908;2024-01-30T01:24:10;-0.20;99.90
21163;DHT22;10739;52.198;20.908;2024-01-30T01:26:37;-0.20;99.90
21163;DHT22;10739;52.198;20.908;2024-01-30T01:29:03;-0.30;99.90
21163;DHT22;10739;52.198;20.908;2024-01-30T01:31:38;-0.20;99.90
21163;DHT22;10739;52.198;20.908;2024-01-30T01:34:11;-0.20;99.90
21163;DHT22;10739;52.198;20.908;2024-01-30T01:36:39;-0.20;99.90
21163;DHT22;10739;52.198;20.908;2024-01-30T01:39:06;-0.30;99.90
21163;DHT22;10739;52.198;20.908;2024-01-30T01:41:32;-0.30;99.90
21163;DHT22;10739;52.198;20.908;2024-01-30T01:44:00;-0.30;99.90
21163;DHT22;10739;52.198;20.908;2024-01-30T01:46:28;-0.20;99.90
21163;DHT22;10739;52.198;20.908;2024-01-30T01:48:58;-0.20;99.90
21163;DHT22;10739;52.198;20.908;2024-01-30T01:51:27;-0.20;99.90
21163;DHT22;10739;52.198;20.908;2024-01-30T01:53:57;-0.20;99.90
21163;DHT22;10739;52.198;20.908;2024-01-30T01:56:27;-0.30;99.90
21163;DHT22;10739;52.198;20.908;2024-01-30T01:58:55;-0.30;99.90
21163;DHT22;10739;52.198;20.908;2024-01-30T02:01:32;-0.30;99.90
21163;DHT22;10739;52.198;20.908;2024-01-30T02:04:00;-0.30;99.90
21163;DHT22;10739;52.198;20.908;2024-01-30T02:06:27;-0.30;99.90
21163;DHT22;10739;52.198;20.908;2024-01-30T02:08:54;-0.30;99.90
21163;DHT22;10739;52.198;20.908;2024-01-30T02:11:22;-0.30;99.90
21163;DHT22;10739;52.198;20.908;2024-01-30T02:13:50;-0.30;99.90
21163;DHT22;10739;52.198;20.908;2024-01-30T02:16:16;-0.30;99.90
21163;DHT22;10739;52.198;20.908;2024-01-30T02:18:45;-0.30;99.90
21163;DHT22;10739;52.198;20.908;2024-01-30T02:21:17;-0.40;99.90
21163;DHT22;10739;52.198;20.908;2024-01-30T02:23:46;-0.40;99.90
21163;DHT22;10739;52.198;20.908;2024-01-30T02:26:14;-0.40;99.90
21163;DHT22;10739;52.198;20.908;2024-01-30T02:28:40;0.30;99.90
21163;DHT22;10739;52.198;20.908;2024-01-30T02:31:07;-0.50;99.90
21163;DHT22;10739;52.198;20.908;2024-01-30T02:33:33;-0.50;99.90
21163;DHT22;10739;52.198;20.908;2024-01-30T02:36:00;-0.50;99.90
21163;DHT22;10739;52.198;20.908;2024-01-30T02:38:26;-0.40;99.90
21163;DHT22;10739;52.198;20.908;2024-01-30T02:40:53;-0.40;99.90
21163;DHT22;10739;52.198;20.908;2024-01-30T02:43:19;-0.40;99.90
21163;DHT22;10739;52.198;20.908;2024-01-30T02:45:45;-0.40;99.90
21163;DHT22;10739;52.198;20.908;2024-01-30T02:48:12;-0.40;99.90
21163;DHT22;10739;52.198;20.908;2024-01-30T02:50:39;-0.40;99.90
21163;DHT22;10739;52.198;20.908;2024-01-30T02:53:05;-0.40;99.90
21163;DHT22;10739;52.198;20.908;2024-01-30T02:55:32;-0.40;99.90
21163;DHT22;10739;52.198;20.908;2024-01-30T02:57:59;-0.40;99.90
21163;DHT22;10739;52.198;20.908;2024-01-30T03:00:25;-0.40;99.90
21163;DHT22;10739;52.198;20.908;2024-01-30T03:02:51;-0.40;99.90
21163;DHT22;10739;52.198;20.908;2024-01-30T03:05:17;-0.30;99.90
21163;DHT22;10739;52.198;20.908;2024-01-30T03:07:44;-0.30;99.90
21163;DHT22;10739;52.198;20.908;2024-01-30T03:10:10;-0.40;99.90
21163;DHT22;10739;52.198;20.908;2024-01-30T03:12:36;-0.40;99.90
21163;DHT22;10739;52.198;20.908;2024-01-30T03:15:02;-0.40;99.90
21163;DHT22;10739;52.198;20.908;2024-01-30T03:17:29;-0.40;99.90
21163;DHT22;10739;52.198;20.908;2024-01-30T03:19:55;-0.40;99.90
21163;DHT22;10739;52.198;20.908;2024-01-30T03:22:21;-0.40;99.90
21163;DHT22;10739;52.198;20.908;2024-01-30T03:24:48;-0.40;99.90
21163;DHT22;10739;52.198;20.908;2024-01-30T03:27:14;-0.40;99.90
21163;DHT22;10739;52.198;20.908;2024-01-30T03:29:40;-0.40;99.90
21163;DHT22;10739;52.198;20.908;2024-01-30T03:32:07;-0.40;99.90
21163;DHT22;10739;52.198;20.908;2024-01-30T03:34:33;-0.40;99.90
21163;DHT22;10739;52.198;20.908;2024-01-30T03:36:59;-0.40;99.90
21163;DHT22;10739;52.198;20.908;2024-01-30T03:39:26;-0.40;99.90
21163;DHT22;10739;52.198;20.908;2024-01-30T03:41:53;-0.40;99.90
21163;DHT22;10739;52.198;20.908;2024-01-30T03:44:19;-0.40;99.90
21163;DHT22;10739;52.198;20.908;2024-01-30T03:46:46;-0.40;99.90
21163;DHT22;10739;52.198;20.908;2024-01-30T03:49:12;-0.50;99.90
21163;DHT22;10739;52.198;20.908;2024-01-30T03:51:38;-0.50;99.90
21163;DHT22;10739;52.198;20.908;2024-01-30T03:54:05;-0.50;99.90
21163;DHT22;10739;52.198;20.908;2024-01-30T03:56:31;-0.50;99.90
21163;DHT22;10739;52.198;20.908;2024-01-30T03:58:58;-0.50;99.90
21163;DHT22;10739;52.198;20.908;2024-01-30T04:01:26;-0.60;99.90
21163;DHT22;10739;52.198;20.908;2024-01-30T04:03:52;-0.50;99.90
21163;DHT22;10739;52.198;20.908;2024-01-30T04:06:19;-0.50;99.90
21163;DHT22;10739;52.198;20.908;2024-01-30T04:08:45;-0.60;99.90
21163;DHT22;10739;52.198;20.908;2024-01-30T04:11:11;-0.50;99.90
21163;DHT22;10739;52.198;20.908;2024-01-30T04:13:38;-0.50;99.90
21163;DHT22;10739;52.198;20.908;2024-01-30T04:16:04;-0.50;99.90
21163;DHT22;10739;52.198;20.908;2024-01-30T04:18:31;-0.50;99.90
21163;DHT22;10739;52.198;20.908;2024-01-30T04:20:58;-0.50;99.90
21163;DHT22;10739;52.198;20.908;2024-01-30T04:23:25;-0.50;99.90
21163;DHT22;10739;52.198;20.908;2024-01-30T04:25:51;-0.60;99.90
21163;DHT22;10739;52.198;20.908;2024-01-30T04:28:17;-0.60;99.90
21163;DHT22;10739;52.198;20.908;2024-01-30T04:30:44;-0.60;99.90
21163;DHT22;10739;52.198;20.908;2024-01-30T04:33:10;-0.60;99.90
21163;DHT22;10739;52.198;20.908;2024-01-30T04:35:37;-0.60;99.90
21163;DHT22;10739;52.198;20.908;2024-01-30T04:38:03;-0.50;99.90
21163;DHT22;10739;52.198;20.908;2024-01-30T04:40:30;-0.50;99.90
21163;DHT22;10739;52.198;20.908;2024-01-30T04:42:56;-0.50;99.90
21163;DHT22;10739;52.198;20.908;2024-01-30T04:45:22;-0.50;99.90
21163;DHT22;10739;52.198;20.908;2024-01-30T04:47:48;-0.40;99.90
21163;DHT22;10739;52.198;20.908;2024-01-30T04:50:15;-0.40;99.90
21163;DHT22;10739;52.198;20.908;2024-01-30T04:52:41;-0.40;99.90
21163;DHT22;10739;52.198;20.908;2024-01-30T04:55:07;-0.50;99.90
21163;DHT22;10739;52.198;20.908;2024-01-30T04:57:34;-0.50;99.90
21163;DHT22;10739;52.198;20.908;2024-01-30T05:00:00;-0.50;99.90
21163;DHT22;10739;52.198;20.908;2024-01-30T05:02:27;-0.50;99.90
21163;DHT22;10739;52.198;20.908;2024-01-30T05:04:54;-0.50;99.90
21163;DHT22;10739;52.198;20.908;2024-01-30T05:07:20;-0.50;99.90
21163;DHT22;10739;52.198;20.908;2024-01-30T05:09:46;-0.50;99.90
21163;DHT22;10739;52.198;20.908;2024-01-30T05:12:13;-0.50;99.90
21163;DHT22;10739;52.198;20.908;2024-01-30T05:14:39;-0.60;99.90
21163;DHT22;10739;52.198;20.908;2024-01-30T05:17:05;-0.60;99.90
21163;DHT22;10739;52.198;20.908;2024-01-30T05:19:31;-0.60;99.90
21163;DHT22;10739;52.198;20.908;2024-01-30T05:21:57;-0.60;99.90
21163;DHT22;10739;52.198;20.908;2024-01-30T05:24:24;-0.60;99.90
21163;DHT22;10739;52.198;20.908;2024-01-30T05:26:50;-0.60;99.90
21163;DHT22;10739;52.198;20.908;2024-01-30T05:29:17;-0.60;99.90
21163;DHT22;10739;52.198;20.908;2024-01-30T05:31:43;-0.60;99.90
21163;DHT22;10739;52.198;20.908;2024-01-30T05:34:09;-0.60;99.90
21163;DHT22;10739;52.198;20.908;2024-01-30T05:36:35;-0.50;99.90
21163;DHT22;10739;52.198;20.908;2024-01-30T05:39:02;-0.50;99.90
21163;DHT22;10739;52.198;20.908;2024-01-30T05:41:28;-0.50;99.90
21163;DHT22;10739;52.198;20.908;2024-01-30T05:43:54;-0.50;99.90
21163;DHT22;10739;52.198;20.908;2024-01-30T05:46:21;-0.50;99.90
21163;DHT22;10739;52.198;20.908;2024-01-30T05:48:47;-0.50;99.90
21163;DHT22;10739;52.198;20.908;2024-01-30T05:51:13;-0.50;99.90
21163;DHT22;10739;52.198;20.908;2024-01-30T05:53:40;-0.50;99.90
21163;DHT22;10739;52.198;20.908;2024-01-30T05:56:06;-0.40;99.90
21163;DHT22;10739;52.198;20.908;2024-01-30T05:58:33;-0.50;99.90
21163;DHT22;10739;52.198;20.908;2024-01-30T06:00:59;-0.50;99.90
21163;DHT22;10739;52.198;20.908;2024-01-30T06:03:25;-0.50;99.90
21163;DHT22;10739;52.198;20.908;2024-01-30T06:05:52;-0.60;99.90
21163;DHT22;10739;52.198;20.908;2024-01-30T06:08:18;-0.50;99.90
21163;DHT22;10739;52.198;20.908;2024-01-30T06:10:44;-0.60;99.90
21163;DHT22;10739;52.198;20.908;2024-01-30T06:13:11;-0.60;99.90
21163;DHT22;10739;52.198;20.908;2024-01-30T06:15:37;-0.60;99.90
21163;DHT22;10739;52.198;20.908;2024-01-30T06:18:03;-0.70;99.90
21163;DHT22;10739;52.198;20.908;2024-01-30T06:20:30;-0.60;99.90
21163;DHT22;10739;52.198;20.908;2024-01-30T06:22:56;-0.60;99.90
21163;DHT22;10739;52.198;20.908;2024-01-30T06:25:23;-0.60;99.90
21163;DHT22;10739;52.198;20.908;2024-01-30T06:27:49;-0.60;99.90
21163;DHT22;10739;52.198;20.908;2024-01-30T06:30:16;-0.60;99.90
21163;DHT22;10739;52.198;20.908;2024-01-30T06:32:42;-0.60;99.90
21163;DHT22;10739;52.198;20.908;2024-01-30T06:35:08;-0.60;99.90
21163;DHT22;10739;52.198;20.908;2024-01-30T06:37:36;-0.60;99.90
21163;DHT22;10739;52.198;20.908;2024-01-30T06:40:03;-0.60;99.90
21163;DHT22;10739;52.198;20.908;2024-01-30T06:42:31;-0.60;99.90
21163;DHT22;10739;52.198;20.908;2024-01-30T06:44:57;-0.50;99.90
21163;DHT22;10739;52.198;20.908;2024-01-30T06:47:23;-0.50;99.90
21163;DHT22;10739;52.198;20.908;2024-01-30T06:49:50;-0.40;99.90
21163;DHT22;10739;52.198;20.908;2024-01-30T06:52:16;-0.40;99.90
21163;DHT22;10739;52.198;20.908;2024-01-30T06:54:42;-0.40;99.90
21163;DHT22;10739;52.198;20.908;2024-01-30T06:57:08;-0.40;99.90
21163;DHT22;10739;52.198;20.908;2024-01-30T06:59:37;-0.40;99.90
21163;DHT22;10739;52.198;20.908;2024-01-30T07:02:10;-0.40;99.90
21163;DHT22;10739;52.198;20.908;2024-01-30T07:04:36;-0.30;99.90
21163;DHT22;10739;52.198;20.908;2024-01-30T07:07:03;-0.30;99.90
21163;DHT22;10739;52.198;20.908;2024-01-30T07:09:31;-0.30;99.90
21163;DHT22;10739;52.198;20.908;2024-01-30T07:11:57;-0.20;99.90
21163;DHT22;10739;52.198;20.908;2024-01-30T07:14:26;-0.30;99.90
21163;DHT22;10739;52.198;20.908;2024-01-30T07:16:52;-0.10;99.90
21163;DHT22;10739;52.198;20.908;2024-01-30T07:19:18;-0.20;99.90
21163;DHT22;10739;52.198;20.908;2024-01-30T07:21:45;-0.10;99.90
21163;DHT22;10739;52.198;20.908;2024-01-30T07:24:11;-0.10;99.90
21163;DHT22;10739;52.198;20.908;2024-01-30T07:26:38;0.00;99.90
21163;DHT22;10739;52.198;20.908;2024-01-30T07:29:04;0.10;99.90
21163;DHT22;10739;52.198;20.908;2024-01-30T07:31:30;0.20;99.90
21163;DHT22;10739;52.198;20.908;2024-01-30T07:33:57;0.20;99.90
21163;DHT22;10739;52.198;20.908;2024-01-30T07:36:23;0.30;99.90
21163;DHT22;10739;52.198;20.908;2024-01-30T07:38:49;0.40;99.90
21163;DHT22;10739;52.198;20.908;2024-01-30T07:41:15;0.80;99.90
21163;DHT22;10739;52.198;20.908;2024-01-30T07:43:43;0.60;99.90
21163;DHT22;10739;52.198;20.908;2024-01-30T07:46:10;0.70;99.90
21163;DHT22;10739;52.198;20.908;2024-01-30T07:48:36;0.70;99.90
21163;DHT22;10739;52.198;20.908;2024-01-30T07:51:02;0.80;99.90
21163;DHT22;10739;52.198;20.908;2024-01-30T07:53:29;0.90;99.90
21163;DHT22;10739;52.198;20.908;2024-01-30T07:55:55;1.00;99.90
21163;DHT22;10739;52.198;20.908;2024-01-30T07:58:21;1.10;99.90
21163;DHT22;10739;52.198;20.908;2024-01-30T08:00:49;1.10;99.90
21163;DHT22;10739;52.198;20.908;2024-01-30T08:03:17;1.20;99.90
21163;DHT22;10739;52.198;20.908;2024-01-30T08:05:43;1.20;99.90
21163;DHT22;10739;52.198;20.908;2024-01-30T08:08:10;1.30;99.90
21163;DHT22;10739;52.198;20.908;2024-01-30T08:10:36;1.40;99.90
21163;DHT22;10739;52.198;20.908;2024-01-30T08:13:02;1.60;99.90
21163;DHT22;10739;52.198;20.908;2024-01-30T08:15:28;1.70;99.90
21163;DHT22;10739;52.198;20.908;2024-01-30T08:17:54;1.80;99.90
21163;DHT22;10739;52.198;20.908;2024-01-30T08:20:24;1.90;99.90
21163;DHT22;10739;52.198;20.908;2024-01-30T08:22:51;2.00;99.90
21163;DHT22;10739;52.198;20.908;2024-01-30T08:25:17;2.10;99.90
21163;DHT22;10739;52.198;20.908;2024-01-30T08:27:44;2.20;99.90
21163;DHT22;10739;52.198;20.908;2024-01-30T08:30:11;2.40;99.90
21163;DHT22;10739;52.198;20.908;2024-01-30T08:32:37;2.40;99.90
21163;DHT22;10739;52.198;20.908;2024-01-30T08:35:04;2.60;99.90
21163;DHT22;10739;52.198;20.908;2024-01-30T08:37:30;2.70;99.90
21163;DHT22;10739;52.198;20.908;2024-01-30T08:39:56;2.80;99.90
21163;DHT22;10739;52.198;20.908;2024-01-30T08:42:22;3.00;99.90
21163;DHT22;10739;52.198;20.908;2024-01-30T08:44:49;3.10;99.90
21163;DHT22;10739;52.198;20.908;2024-01-30T08:47:17;3.20;99.90
21163;DHT22;10739;52.198;20.908;2024-01-30T08:49:44;3.40;99.90
21163;DHT22;10739;52.198;20.908;2024-01-30T08:52:11;3.60;99.90
21163;DHT22;10739;52.198;20.908;2024-01-30T08:54:37;4.40;99.90
21163;DHT22;10739;52.198;20.908;2024-01-30T08:57:03;5.30;99.90
21163;DHT22;10739;52.198;20.908;2024-01-30T08:59:30;6.10;99.90
21163;DHT22;10739;52.198;20.908;2024-01-30T09:01:56;6.60;99.90
21163;DHT22;10739;52.198;20.908;2024-01-30T09:04:24;7.00;99.90
21163;DHT22;10739;52.198;20.908;2024-01-30T09:06:50;7.40;99.90
21163;DHT22;10739;52.198;20.908;2024-01-30T09:09:17;7.80;99.90
21163;DHT22;10739;52.198;20.908;2024-01-30T09:11:43;8.30;99.90
21163;DHT22;10739;52.198;20.908;2024-01-30T09:14:10;8.20;99.90
21163;DHT22;10739;52.198;20.908;2024-01-30T09:16:36;8.20;99.90
21163;DHT22;10739;52.198;20.908;2024-01-30T09:19:02;8.30;99.90
21163;DHT22;10739;52.198;20.908;2024-01-30T09:21:28;8.70;99.90
21163;DHT22;10739;52.198;20.908;2024-01-30T09:23:54;9.00;99.90
21163;DHT22;10739;52.198;20.908;2024-01-30T09:26:28;9.40;99.90
21163;DHT22;10739;52.198;20.908;2024-01-30T09:28:55;9.00;99.20
21163;DHT22;10739;52.198;20.908;2024-01-30T09:31:20;9.40;99.90
21163;DHT22;10739;52.198;20.908;2024-01-30T09:33:46;9.60;98.80
21163;DHT22;10739;52.198;20.908;2024-01-30T09:36:13;10.60;97.70
21163;DHT22;10739;52.198;20.908;2024-01-30T09:38:44;9.80;96.70
21163;DHT22;10739;52.198;20.908;2024-01-30T09:41:11;9.40;98.20
21163;DHT22;10739;52.198;20.908;2024-01-30T09:43:38;8.70;99.90
21163;DHT22;10739;52.198;20.908;2024-01-30T09:46:12;8.30;99.90
21163;DHT22;10739;52.198;20.908;2024-01-30T09:48:41;7.20;99.90
21163;DHT22;10739;52.198;20.908;2024-01-30T09:51:11;6.90;99.90
21163;DHT22;10739;52.198;20.908;2024-01-30T09:53:41;6.30;99.90
21163;DHT22;10739;52.198;20.908;2024-01-30T09:56:08;6.10;99.90
21163;DHT22;10739;52.198;20.908;2024-01-30T09:58:35;5.80;99.90
21163;DHT22;10739;52.198;20.908;2024-01-30T10:01:01;5.70;99.90
21163;DHT22;10739;52.198;20.908;2024-01-30T10:03:27;5.60;99.90
21163;DHT22;10739;52.198;20.908;2024-01-30T10:05:57;5.70;99.90
21163;DHT22;10739;52.198;20.908;2024-01-30T10:08:26;5.70;99.90
21163;DHT22;10739;52.198;20.908;2024-01-30T10:10:52;5.70;99.90
21163;DHT22;10739;52.198;20.908;2024-01-30T10:13:19;5.70;99.90
21163;DHT22;10739;52.198;20.908;2024-01-30T10:15:45;5.80;99.90
21163;DHT22;10739;52.198;20.908;2024-01-30T10:18:13;5.80;99.90
21163;DHT22;10739;52.198;20.908;2024-01-30T10:20:39;5.90;99.90
21163;DHT22;10739;52.198;20.908;2024-01-30T10:23:06;5.90;99.90
21163;DHT22;10739;52.198;20.908;2024-01-30T10:25:32;5.90;99.90
21163;DHT22;10739;52.198;20.908;2024-01-30T10:27:59;6.00;99.90
21163;DHT22;10739;52.198;20.908;2024-01-30T10:30:26;6.10;99.90
21163;DHT22;10739;52.198;20.908;2024-01-30T10:32:53;6.10;99.90
21163;DHT22;10739;52.198;20.908;2024-01-30T10:35:19;6.00;99.90
21163;DHT22;10739;52.198;20.908;2024-01-30T10:37:49;6.20;99.90
21163;DHT22;10739;52.198;20.908;2024-01-30T10:40:15;6.30;99.90
21163;DHT22;10739;52.198;20.908;2024-01-30T10:42:45;6.40;99.90
21163;DHT22;10739;52.198;20.908;2024-01-30T10:45:14;6.40;99.90
21163;DHT22;10739;52.198;20.908;2024-01-30T10:47:50;6.40;99.90
21163;DHT22;10739;52.198;20.908;2024-01-30T10:50:20;6.30;99.90
21163;DHT22;10739;52.198;20.908;2024-01-30T10:52:47;6.30;99.90
21163;DHT22;10739;52.198;20.908;2024-01-30T10:55:14;6.30;99.90
21163;DHT22;10739;52.198;20.908;2024-01-30T10:57:41;6.30;99.90
21163;DHT22;10739;52.198;20.908;2024-01-30T11:00:13;6.40;99.90
21163;DHT22;10739;52.198;20.908;2024-01-30T11:02:45;6.40;99.90
21163;DHT22;10739;52.198;20.908;2024-01-30T11:05:13;6.50;99.90
21163;DHT22;10739;52.198;20.908;2024-01-30T11:07:41;6.50;99.90
21163;DHT22;10739;52.198;20.908;2024-01-30T11:10:07;6.50;99.90
21163;DHT22;10739;52.198;20.908;2024-01-30T11:12:39;6.50;99.90
21163;DHT22;10739;52.198;20.908;2024-01-30T11:15:12;6.50;99.90
21163;DHT22;10739;52.198;20.908;2024-01-30T11:20:20;6.70;99.90
21163;DHT22;10739;52.198;20.908;2024-01-30T11:22:47;6.70;99.90
21163;DHT22;10739;52.198;20.908;2024-01-30T11:25:18;6.80;99.90
21163;DHT22;10739;52.198;20.908;2024-01-30T11:27:49;6.80;99.90
21163;DHT22;10739;52.198;20.908;2024-01-30T11:30:31;6.90;99.90
21163;DHT22;10739;52.198;20.908;2024-01-30T11:33:08;6.90;99.90
21163;DHT22;10739;52.198;20.908;2024-01-30T11:35:42;6.90;99.90
21163;DHT22;10739;52.198;20.908;2024-01-30T11:38:19;7.00;99.90
21163;DHT22;10739;52.198;20.908;2024-01-30T11:40:45;7.00;99.90
21163;DHT22;10739;52.198;20.908;2024-01-30T11:43:11;7.00;99.90
21163;DHT22;10739;52.198;20.908;2024-01-30T11:45:38;7.10;99.90
21163;DHT22;10739;52.198;20.908;2024-01-30T11:48:05;7.10;99.90
21163;DHT22;10739;52.198;20.908;2024-01-30T11:50:33;7.20;99.90
21163;DHT22;10739;52.198;20.908;2024-01-30T11:53:00;7.20;99.90
21163;DHT22;10739;52.198;20.908;2024-01-30T11:55:28;7.20;99.90
21163;DHT22;10739;52.198;20.908;2024-01-30T11:57:56;7.20;99.90
21163;DHT22;10739;52.198;20.908;2024-01-30T12:00:23;7.20;99.90
21163;DHT22;10739;52.198;20.908;2024-01-30T12:02:51;7.20;99.90
21163;DHT22;10739;52.198;20.908;2024-01-30T12:05:25;7.20;99.90
21163;DHT22;10739;52.198;20.908;2024-01-30T12:07:52;7.20;99.90
21163;DHT22;10739;52.198;20.908;2024-01-30T12:10:18;7.20;99.90
21163;DHT22;10739;52.198;20.908;2024-01-30T12:12:49;7.20;99.90
21163;DHT22;10739;52.198;20.908;2024-01-30T12:15:17;7.20;99.90
21163;DHT22;10739;52.198;20.908;2024-01-30T12:17:44;7.20;99.90
21163;DHT22;10739;52.198;20.908;2024-01-30T12:20:15;7.20;99.90
21163;DHT22;10739;52.198;20.908;2024-01-30T12:22:45;7.20;99.90
21163;DHT22;10739;52.198;20.908;2024-01-30T12:25:14;7.20;99.90
21163;DHT22;10739;52.198;20.908;2024-01-30T12:27:46;7.30;99.90
21163;DHT22;10739;52.198;20.908;2024-01-30T12:30:17;7.30;99.90
21163;DHT22;10739;52.198;20.908;2024-01-30T12:32:46;7.30;99.90
21163;DHT22;10739;52.198;20.908;2024-01-30T12:35:16;7.30;99.90
21163;DHT22;10739;52.198;20.908;2024-01-30T12:37:44;7.40;99.90
21163;DHT22;10739;52.198;20.908;2024-01-30T12:40:12;7.40;99.90
21163;DHT22;10739;52.198;20.908;2024-01-30T12:42:46;7.40;99.90
21163;DHT22;10739;52.198;20.908;2024-01-30T12:45:16;7.60;99.90
21163;DHT22;10739;52.198;20.908;2024-01-30T12:47:46;7.40;99.90
21163;DHT22;10739;52.198;20.908;2024-01-30T12:50:12;7.40;99.90
21163;DHT22;10739;52.198;20.908;2024-01-30T12:52:42;7.40;99.90
21163;DHT22;10739;52.198;20.908;2024-01-30T12:55:09;7.50;99.90
21163;DHT22;10739;52.198;20.908;2024-01-30T12:57:35;7.50;99.90
21163;DHT22;10739;52.198;20.908;2024-01-30T13:00:01;7.50;99.90
21163;DHT22;10739;52.198;20.908;2024-01-30T13:02:28;7.50;99.90
21163;DHT22;10739;52.198;20.908;2024-01-30T13:05:00;7.60;99.90
21163;DHT22;10739;52.198;20.908;2024-01-30T13:07:26;7.60;99.90
21163;DHT22;10739;52.198;20.908;2024-01-30T13:09:53;7.60;99.90
21163;DHT22;10739;52.198;20.908;2024-01-30T13:12:19;7.60;99.90
21163;DHT22;10739;52.198;20.908;2024-01-30T13:14:45;7.60;99.90
21163;DHT22;10739;52.198;20.908;2024-01-30T13:17:11;7.60;99.90
21163;DHT22;10739;52.198;20.908;2024-01-30T13:19:37;7.50;99.90
21163;DHT22;10739;52.198;20.908;2024-01-30T13:22:06;7.50;99.90
21163;DHT22;10739;52.198;20.908;2024-01-30T13:24:33;7.50;99.90
21163;DHT22;10739;52.198;20.908;2024-01-30T13:26:59;7.50;99.90
21163;DHT22;10739;52.198;20.908;2024-01-30T13:29:25;7.50;99.90
21163;DHT22;10739;52.198;20.908;2024-01-30T13:31:51;7.50;99.90
21163;DHT22;10739;52.198;20.908;2024-01-30T13:34:17;7.50;99.90
21163;DHT22;10739;52.198;20.908;2024-01-30T13:36:44;7.50;99.90
21163;DHT22;10739;52.198;20.908;2024-01-30T13:39:10;7.50;99.90
21163;DHT22;10739;52.198;20.908;2024-01-30T13:41:38;7.60;99.90
21163;DHT22;10739;52.198;20.908;2024-01-30T13:44:04;7.60;99.90
21163;DHT22;10739;52.198;20.908;2024-01-30T13:46:30;7.60;99.90
21163;DHT22;10739;52.198;20.908;2024-01-30T13:48:57;7.50;99.90
21163;DHT22;10739;52.198;20.908;2024-01-30T13:51:23;7.50;99.90
21163;DHT22;10739;52.198;20.908;2024-01-30T13:53:50;7.50;99.90
21163;DHT22;10739;52.198;20.908;2024-01-30T13:56:21;7.40;99.90
21163;DHT22;10739;52.198;20.908;2024-01-30T13:58:49;7.40;99.90
21163;DHT22;10739;52.198;20.908;2024-01-30T14:01:17;7.40;99.90
21163;DHT22;10739;52.198;20.908;2024-01-30T14:03:43;7.40;99.90
21163;DHT22;10739;52.198;20.908;2024-01-30T14:06:11;7.30;99.90
21163;DHT22;10739;52.198;20.908;2024-01-30T14:08:37;7.30;99.90
21163;DHT22;10739;52.198;20.908;2024-01-30T14:11:04;7.30;99.90
21163;DHT22;10739;52.198;20.908;2024-01-30T14:13:30;7.30;99.90
21163;DHT22;10739;52.198;20.908;2024-01-30T14:15:58;7.30;99.90
21163;DHT22;10739;52.198;20.908;2024-01-30T14:18:24;7.20;99.90
21163;DHT22;10739;52.198;20.908;2024-01-30T14:20:51;7.20;99.90
21163;DHT22;10739;52.198;20.908;2024-01-30T14:23:18;7.10;99.90
21163;DHT22;10739;52.198;20.908;2024-01-30T14:25:44;7.10;99.90
21163;DHT22;10739;52.198;20.908;2024-01-30T14:28:10;7.10;99.90
21163;DHT22;10739;52.198;20.908;2024-01-30T14:30:37;7.00;99.90
21163;DHT22;10739;52.198;20.908;2024-01-30T14:33:03;7.00;99.90
21163;DHT22;10739;52.198;20.908;2024-01-30T14:35:29;6.90;99.90
21163;DHT22;10739;52.198;20.908;2024-01-30T14:37:56;6.90;99.90
21163;DHT22;10739;52.198;20.908;2024-01-30T14:40:22;6.90;99.90
21163;DHT22;10739;52.198;20.908;2024-01-30T14:42:48;6.80;99.90
21163;DHT22;10739;52.198;20.908;2024-01-30T14:45:14;6.80;99.90
21163;DHT22;10739;52.198;20.908;2024-01-30T14:47:41;6.70;99.90
21163;DHT22;10739;52.198;20.908;2024-01-30T14:50:08;6.60;99.90
21163;DHT22;10739;52.198;20.908;2024-01-30T14:52:34;6.60;99.90
21163;DHT22;10739;52.198;20.908;2024-01-30T14:55:01;6.60;99.90
21163;DHT22;10739;52.198;20.908;2024-01-30T14:57:28;6.60;99.90
21163;DHT22;10739;52.198;20.908;2024-01-30T14:59:54;6.50;99.90
21163;DHT22;10739;52.198;20.908;2024-01-30T15:02:20;6.50;99.90
21163;DHT22;10739;52.198;20.908;2024-01-30T15:04:46;6.40;99.90
21163;DHT22;10739;52.198;20.908;2024-01-30T15:07:12;6.40;99.90
21163;DHT22;10739;52.198;20.908;2024-01-30T15:09:39;6.30;99.90
21163;DHT22;10739;52.198;20.908;2024-01-30T15:12:05;6.30;99.90
21163;DHT22;10739;52.198;20.908;2024-01-30T15:14:31;6.20;99.90
21163;DHT22;10739;52.198;20.908;2024-01-30T15:16:57;6.20;99.90
21163;DHT22;10739;52.198;20.908;2024-01-30T15:19:23;6.10;99.90
21163;DHT22;10739;52.198;20.908;2024-01-30T15:21:50;6.10;99.90
21163;DHT22;10739;52.198;20.908;2024-01-30T15:24:16;6.00;99.90